Time;durP1;ratioP1;P1;durP2;ratioP2;P2;SDS_P1;SDS_P2;PMS_P1;PMS_P2;Temp;Humidity;BMP_temperature;BMP_pressure;BME280_temperature;BME280_humidity;BME280_pressure;Samples;Min_cycle;Max_cycle;Signal;HPM_P1;HPM_P2
2022/11/23 00:01:23;;;;;;;6.00;3.07;;;4.10;99.90;;;;;;4985667;28;20463;-67
2022/11/23 00:03:52;;;;;;;6.27;3.03;;;4.10;99.90;;;;;;4985868;28;20972;-67
2022/11/23 00:06:19;;;;;;;8.60;2.77;;;4.10;99.90;;;;;;4989088;28;20442;-66
2022/11/23 00:08:45;;;;;;;6.40;3.07;;;4.10;99.90;;;;;;4990349;28;20458;-66
2022/11/23 00:11:11;;;;;;;6.07;3.20;;;4.00;99.90;;;;;;4991662;28;20466;-67
2022/11/23 00:13:41;;;;;;;7.40;4.20;;;4.00;99.90;;;;;;4991172;28;20233;-67
2022/11/23 00:16:16;;;;;;;5.00;3.17;;;4.00;99.90;;;;;;4991002;28;20510;-67
2022/11/23 00:18:42;;;;;;;5.70;3.50;;;4.00;99.90;;;;;;4987653;28;20441;-66
2022/11/23 00:21:10;;;;;;;5.47;3.77;;;3.90;99.90;;;;;;4992809;28;20975;-66
2022/11/23 00:23:36;;;;;;;4.80;3.40;;;3.90;99.90;;;;;;4986000;28;21301;-67
2022/11/23 00:26:02;;;;;;;5.43;3.40;;;3.90;99.90;;;;;;4992821;28;20441;-66
2022/11/23 00:28:28;;;;;;;8.93;3.67;;;3.90;99.90;;;;;;4989128;28;20183;-66
2022/11/23 00:30:53;;;;;;;4.27;3.23;;;3.80;99.90;;;;;;4991392;28;20441;-67
2022/11/23 00:33:19;;;;;;;5.37;2.53;;;3.80;99.90;;;;;;4985865;28;20544;-67
2022/11/23 00:35:44;;;;;;;3.30;2.53;;;3.80;99.90;;;;;;4992455;28;20186;-66
2022/11/23 00:38:10;;;;;;;7.17;3.30;;;3.80;99.90;;;;;;4989930;28;20219;-66
2022/11/23 00:40:36;;;;;;;4.90;2.87;;;3.80;99.90;;;;;;4992378;28;20729;-67
2022/11/23 00:43:01;;;;;;;2.97;2.67;;;3.80;99.90;;;;;;4993062;28;20454;-67
2022/11/23 00:45:27;;;;;;;7.50;2.93;;;3.80;99.90;;;;;;4992744;28;20210;-67
2022/11/23 00:47:52;;;;;;;6.10;2.53;;;3.80;99.90;;;;;;4993294;28;20528;-67
2022/11/23 00:50:18;;;;;;;4.97;2.33;;;3.80;99.90;;;;;;4990177;28;20187;-66
2022/11/23 00:52:44;;;;;;;6.67;3.43;;;3.80;99.90;;;;;;4986510;28;20211;-66
2022/11/23 00:55:09;;;;;;;3.97;2.30;;;3.80;99.90;;;;;;4991999;28;20183;-67
2022/11/23 00:57:35;;;;;;;3.63;2.30;;;3.80;99.90;;;;;;4991816;28;20693;-66
2022/11/23 01:00:01;;;;;;;5.07;2.20;;;3.80;99.90;;;;;;4990721;28;20196;-66
2022/11/23 01:02:27;;;;;;;3.33;2.40;;;3.80;99.90;;;;;;4990065;28;20204;-66
2022/11/23 01:04:52;;;;;;;4.53;2.00;;;3.80;99.90;;;;;;4992495;28;20852;-67
2022/11/23 01:07:18;;;;;;;5.00;2.97;;;3.80;99.90;;;;;;4991911;28;20186;-66
2022/11/23 01:09:43;;;;;;;3.10;2.40;;;3.80;99.90;;;;;;4991225;28;20190;-67
2022/11/23 01:12:09;;;;;;;4.20;2.50;;;3.80;99.90;;;;;;4991847;28;20211;-66
2022/11/23 01:14:34;;;;;;;2.60;1.87;;;3.80;99.90;;;;;;4992271;28;20185;-66
2022/11/23 01:17:00;;;;;;;4.00;2.40;;;3.80;99.90;;;;;;4992424;28;20229;-67
2022/11/23 01:19:25;;;;;;;8.13;2.77;;;3.80;99.90;;;;;;4990858;28;20187;-67
2022/11/23 01:21:51;;;;;;;2.70;2.50;;;3.90;99.90;;;;;;4991671;28;20210;-67
2022/11/23 01:24:21;;;;;;;8.87;2.50;;;3.90;99.90;;;;;;4989526;28;20222;-67
2022/11/23 01:26:51;;;;;;;4.90;2.80;;;3.90;99.90;;;;;;4987900;28;20774;-67
2022/11/23 01:29:17;;;;;;;3.60;1.83;;;4.00;99.90;;;;;;4987835;28;20457;-68
2022/11/23 01:31:42;;;;;;;2.53;2.17;;;4.00;99.90;;;;;;4990743;28;20497;-66
2022/11/23 01:34:11;;;;;;;5.10;2.20;;;4.10;99.90;;;;;;4991115;28;20215;-67
2022/11/23 01:36:36;;;;;;;3.63;2.30;;;4.10;99.90;;;;;;4990957;28;20271;-67
2022/11/23 01:39:04;;;;;;;3.70;2.30;;;4.10;99.90;;;;;;4990903;28;20518;-67
2022/11/23 01:41:33;;;;;;;4.30;2.37;;;4.10;99.90;;;;;;4991918;28;20226;-67
2022/11/23 01:44:00;;;;;;;2.60;1.80;;;4.10;99.90;;;;;;4992195;28;20991;-67
2022/11/23 01:46:26;;;;;;;4.87;2.47;;;4.10;99.90;;;;;;4988637;28;20837;-67
2022/11/23 01:48:56;;;;;;;5.10;2.20;;;4.10;99.90;;;;;;4985795;28;20450;-69
2022/11/23 01:51:34;;;;;;;4.57;2.27;;;4.10;99.90;;;;;;4986566;28;20230;-67
2022/11/23 01:54:14;;;;;;;4.67;2.80;;;4.10;99.90;;;;;;4980316;28;20507;-67
2022/11/23 01:56:45;;;;;;;8.63;2.50;;;4.10;99.90;;;;;;4987139;28;20936;-67
2022/11/23 01:59:15;;;;;;;4.10;2.53;;;4.10;99.90;;;;;;4989510;28;20445;-68
2022/11/23 02:01:41;;;;;;;4.60;1.97;;;4.10;99.90;;;;;;4991873;28;20458;-67
2022/11/23 02:04:13;;;;;;;2.80;2.23;;;4.10;99.90;;;;;;4984267;28;20967;-67
2022/11/23 02:06:40;;;;;;;3.67;2.07;;;4.10;99.90;;;;;;4991299;28;20446;-68
2022/11/23 02:09:06;;;;;;;2.63;2.03;;;4.10;99.90;;;;;;4990433;28;20451;-67
2022/11/23 02:11:32;;;;;;;6.67;2.20;;;4.10;99.90;;;;;;4990140;28;21189;-66
2022/11/23 02:13:59;;;;;;;4.10;2.03;;;4.10;99.90;;;;;;4991149;28;20438;-66
2022/11/23 02:16:24;;;;;;;4.83;2.13;;;4.10;99.90;;;;;;4991787;28;20493;-67
2022/11/23 02:18:50;;;;;;;1.53;1.43;;;4.10;99.90;;;;;;4987847;28;20434;-67
2022/11/23 02:21:16;;;;;;;5.83;2.30;;;4.10;99.90;;;;;;4991339;28;20214;-67
2022/11/23 02:24:16;;;;;;;2.33;1.60;;;4.10;99.90;;;;;;4987404;28;20442;-67
2022/11/23 02:26:42;;;;;;;9.00;2.60;;;4.10;99.90;;;;;;4986312;28;20181;-67
2022/11/23 02:29:14;;;;;;;1.80;1.70;;;4.10;99.90;;;;;;4988770;28;20445;-67
2022/11/23 02:31:40;;;;;;;4.33;1.80;;;4.10;99.90;;;;;;4992412;28;20527;-67
2022/11/23 02:34:05;;;;;;;4.70;1.90;;;4.10;99.90;;;;;;4992420;28;20816;-67
2022/11/23 02:36:37;;;;;;;4.40;2.27;;;4.00;99.90;;;;;;4993827;28;20184;-66
2022/11/23 02:39:08;;;;;;;3.67;2.50;;;4.00;99.90;;;;;;4986370;28;20239;-67
2022/11/23 02:41:36;;;;;;;3.80;2.17;;;4.00;99.90;;;;;;4990197;28;20879;-67
2022/11/23 02:44:03;;;;;;;3.53;2.30;;;4.00;99.90;;;;;;4991463;28;20516;-67
2022/11/23 02:46:29;;;;;;;7.70;1.70;;;4.00;99.90;;;;;;4986635;28;21044;-66
2022/11/23 02:48:54;;;;;;;6.23;3.10;;;4.00;99.90;;;;;;4988049;28;20530;-66
2022/11/23 02:51:20;;;;;;;3.30;1.90;;;3.90;99.90;;;;;;4993363;28;20544;-67
2022/11/23 02:53:45;;;;;;;3.90;1.97;;;3.90;99.90;;;;;;4992242;28;20180;-69
2022/11/23 02:56:11;;;;;;;4.10;2.03;;;3.90;99.90;;;;;;4992690;28;20589;-70
2022/11/23 02:58:36;;;;;;;5.17;2.17;;;3.90;99.90;;;;;;4992494;28;20192;-70
2022/11/23 03:01:02;;;;;;;5.17;2.20;;;3.90;99.90;;;;;;4992574;28;20253;-68
2022/11/23 03:03:27;;;;;;;7.50;2.60;;;3.90;99.90;;;;;;4987319;28;20187;-67
2022/11/23 03:05:53;;;;;;;5.60;1.90;;;3.90;99.90;;;;;;4987008;28;20187;-67
2022/11/23 03:08:18;;;;;;;3.43;2.13;;;3.90;99.90;;;;;;4988806;28;21620;-66
2022/11/23 03:10:44;;;;;;;8.30;2.77;;;3.90;99.90;;;;;;4992044;28;20291;-67
2022/11/23 03:13:09;;;;;;;2.20;2.00;;;3.90;99.90;;;;;;4984812;28;20227;-67
2022/11/23 03:15:35;;;;;;;5.53;2.20;;;3.90;99.90;;;;;;4986734;28;20233;-69
2022/11/23 03:18:00;;;;;;;4.93;1.93;;;4.00;99.90;;;;;;4991416;28;20230;-69
2022/11/23 03:20:26;;;;;;;3.23;1.70;;;4.00;99.90;;;;;;4992679;28;20180;-69
2022/11/23 03:22:52;;;;;;;4.87;1.93;;;4.00;99.90;;;;;;4987967;28;20259;-69
2022/11/23 03:25:17;;;;;;;3.23;1.90;;;4.00;99.90;;;;;;4982939;28;20183;-69
2022/11/23 03:27:43;;;;;;;4.80;2.07;;;4.10;99.90;;;;;;4982158;28;20466;-69
2022/11/23 03:30:09;;;;;;;3.23;1.87;;;4.10;99.90;;;;;;4988521;28;20246;-69
2022/11/23 03:32:35;;;;;;;9.00;1.80;;;4.10;99.90;;;;;;4991550;28;20270;-69
2022/11/23 03:35:01;;;;;;;5.73;1.40;;;4.10;99.90;;;;;;4990496;28;20855;-68
2022/11/23 03:37:27;;;;;;;3.30;1.40;;;4.10;99.90;;;;;;4989562;28;20474;-69
2022/11/23 03:39:52;;;;;;;3.80;2.17;;;4.10;99.90;;;;;;4990522;28;20861;-68
2022/11/23 03:42:18;;;;;;;4.03;2.00;;;4.10;99.90;;;;;;4991626;28;20672;-68
2022/11/23 03:44:43;;;;;;;5.37;2.10;;;4.10;99.90;;;;;;4991301;28;20195;-69
2022/11/23 03:47:09;;;;;;;4.20;2.17;;;4.10;99.90;;;;;;4992329;28;20199;-68
2022/11/23 03:49:35;;;;;;;6.43;2.10;;;4.00;99.90;;;;;;4991680;28;20184;-68
2022/11/23 03:52:00;;;;;;;7.60;1.70;;;4.00;99.90;;;;;;4991994;28;20466;-68
2022/11/23 03:54:26;;;;;;;2.80;1.60;;;4.10;99.90;;;;;;4991755;28;20188;-68
2022/11/23 03:56:51;;;;;;;2.30;1.97;;;4.10;99.90;;;;;;4990804;28;20183;-68
2022/11/23 03:59:17;;;;;;;3.43;1.90;;;4.20;99.90;;;;;;4989156;28;20180;-68
2022/11/23 04:01:42;;;;;;;5.90;2.00;;;4.20;99.90;;;;;;4987966;28;20207;-68
2022/11/23 04:04:08;;;;;;;3.03;1.43;;;4.20;99.90;;;;;;4990933;28;20269;-68
2022/11/23 04:06:33;;;;;;;3.30;1.43;;;4.20;99.90;;;;;;4988084;28;20261;-68
2022/11/23 04:08:59;;;;;;;3.27;2.33;;;4.20;99.90;;;;;;4990405;28;20188;-68
2022/11/23 04:11:24;;;;;;;3.87;2.03;;;4.10;99.90;;;;;;4991850;28;20227;-67
2022/11/23 04:13:50;;;;;;;3.27;1.90;;;4.10;99.90;;;;;;4993504;28;20198;-69
2022/11/23 04:16:15;;;;;;;5.43;2.27;;;4.10;99.90;;;;;;4985396;28;20222;-67
2022/11/23 04:18:41;;;;;;;4.60;2.00;;;4.00;99.90;;;;;;4984112;28;20536;-69
2022/11/23 04:21:07;;;;;;;3.20;2.00;;;4.00;99.90;;;;;;4992519;28;20552;-68
2022/11/23 04:23:32;;;;;;;4.00;1.80;;;4.00;99.90;;;;;;4993503;28;20187;-68
2022/11/23 04:25:58;;;;;;;3.83;2.17;;;3.90;99.90;;;;;;4993595;28;20263;-68
2022/11/23 04:28:23;;;;;;;4.23;1.93;;;3.90;99.90;;;;;;4989858;28;20211;-68
2022/11/23 04:30:49;;;;;;;2.80;1.87;;;3.90;99.90;;;;;;4992231;28;20187;-68
2022/11/23 04:33:14;;;;;;;7.53;1.70;;;4.00;99.90;;;;;;4988517;28;20242;-68
2022/11/23 04:35:40;;;;;;;3.47;2.33;;;4.00;99.90;;;;;;4991327;28;20184;-68
2022/11/23 04:38:06;;;;;;;6.73;1.53;;;4.00;99.90;;;;;;4986856;28;20247;-68
2022/11/23 04:40:31;;;;;;;4.27;1.50;;;4.00;99.90;;;;;;4991727;28;20723;-68
2022/11/23 04:42:57;;;;;;;3.60;1.60;;;4.10;99.90;;;;;;4988088;28;20203;-68
2022/11/23 04:45:23;;;;;;;2.03;1.50;;;4.10;99.90;;;;;;4989467;28;20206;-68
2022/11/23 04:47:48;;;;;;;3.07;2.20;;;4.20;99.90;;;;;;4988291;28;20952;-68
2022/11/23 04:50:15;;;;;;;3.17;1.67;;;4.20;99.90;;;;;;4989576;28;20302;-69
2022/11/23 04:52:40;;;;;;;3.73;1.60;;;4.20;99.90;;;;;;4988995;28;21221;-68
2022/11/23 04:55:06;;;;;;;2.27;1.70;;;4.30;99.90;;;;;;4990438;28;20438;-68
2022/11/23 04:57:32;;;;;;;2.47;1.60;;;4.30;99.90;;;;;;4990393;28;20175;-69
2022/11/23 04:59:57;;;;;;;3.03;2.03;;;4.30;99.90;;;;;;4984369;28;20242;-67
2022/11/23 05:02:23;;;;;;;8.13;1.57;;;4.40;99.90;;;;;;4989318;28;20206;-68
2022/11/23 05:04:48;;;;;;;3.37;2.13;;;4.40;99.90;;;;;;4990250;28;20673;-69
2022/11/23 05:07:14;;;;;;;5.47;1.63;;;4.40;99.90;;;;;;4985160;28;20218;-68
2022/11/23 05:09:39;;;;;;;4.33;1.43;;;4.40;99.90;;;;;;4989965;28;20215;-68
2022/11/23 05:12:05;;;;;;;3.90;2.00;;;4.40;99.90;;;;;;4984559;28;20297;-68
2022/11/23 05:14:30;;;;;;;7.33;2.30;;;4.40;99.90;;;;;;4984420;28;21184;-67
2022/11/23 05:16:56;;;;;;;6.10;3.53;;;4.30;99.90;;;;;;4984487;28;20470;-68
2022/11/23 05:19:21;;;;;;;3.50;1.70;;;4.30;99.90;;;;;;4986750;28;20264;-68
2022/11/23 05:21:47;;;;;;;3.13;1.67;;;4.30;99.90;;;;;;4991590;28;20212;-68
2022/11/23 05:24:12;;;;;;;4.07;1.60;;;4.30;99.90;;;;;;4983512;28;20181;-68
2022/11/23 05:26:38;;;;;;;2.43;2.00;;;4.20;99.90;;;;;;4991590;28;20626;-68
2022/11/23 05:29:03;;;;;;;5.60;2.40;;;4.20;99.90;;;;;;4990894;28;20210;-68
2022/11/23 05:31:29;;;;;;;6.10;1.93;;;4.30;99.90;;;;;;4987862;28;20613;-67
2022/11/23 05:33:54;;;;;;;4.73;2.00;;;4.40;99.90;;;;;;4990062;28;20610;-68
2022/11/23 05:36:20;;;;;;;4.63;2.23;;;4.40;99.90;;;;;;4981640;28;20199;-68
2022/11/23 05:38:46;;;;;;;1.63;1.53;;;4.40;99.90;;;;;;4990119;28;20187;-68
2022/11/23 05:41:11;;;;;;;7.10;1.83;;;4.40;99.90;;;;;;4990003;28;20207;-68
2022/11/23 05:43:37;;;;;;;2.87;1.80;;;4.50;99.90;;;;;;4991014;28;20586;-68
2022/11/23 05:46:02;;;;;;;2.60;1.87;;;4.50;99.90;;;;;;4989687;28;20189;-68
2022/11/23 05:48:28;;;;;;;4.00;1.90;;;4.60;99.90;;;;;;4985089;28;20192;-69
2022/11/23 05:50:54;;;;;;;6.57;2.10;;;4.60;99.90;;;;;;4988740;28;20230;-67
2022/11/23 05:53:19;;;;;;;2.20;1.60;;;4.70;99.90;;;;;;4988292;28;20175;-69
2022/11/23 05:55:45;;;;;;;3.70;2.17;;;4.70;99.90;;;;;;4985428;28;20216;-68
2022/11/23 05:58:10;;;;;;;3.43;1.73;;;4.60;99.90;;;;;;4990017;28;20187;-69
2022/11/23 06:00:36;;;;;;;4.23;2.17;;;4.60;99.90;;;;;;4988136;28;20277;-68
2022/11/23 06:03:02;;;;;;;5.93;1.83;;;4.60;99.90;;;;;;4986098;28;20298;-68
2022/11/23 06:05:29;;;;;;;4.90;2.00;;;4.50;99.90;;;;;;4990212;28;20187;-68
2022/11/23 06:07:55;;;;;;;2.70;1.77;;;4.50;99.90;;;;;;4992844;28;20443;-69
2022/11/23 06:10:20;;;;;;;2.40;1.70;;;4.50;99.90;;;;;;4992163;28;20445;-68
2022/11/23 06:12:46;;;;;;;4.80;1.93;;;4.50;99.90;;;;;;4991850;28;20472;-68
2022/11/23 06:15:12;;;;;;;2.23;1.80;;;4.50;99.90;;;;;;4992143;28;20203;-68
2022/11/23 06:17:37;;;;;;;3.43;2.40;;;4.50;99.90;;;;;;4993245;28;20187;-68
2022/11/23 06:20:07;;;;;;;5.53;2.10;;;4.50;99.90;;;;;;4983350;28;20179;-68
2022/11/23 06:22:33;;;;;;;7.87;3.00;;;4.40;99.90;;;;;;4991120;28;20200;-68
2022/11/23 06:24:59;;;;;;;5.17;2.33;;;4.40;99.90;;;;;;4986478;28;20564;-68
2022/11/23 06:27:24;;;;;;;6.37;2.30;;;4.40;99.90;;;;;;4992773;28;20565;-68
2022/11/23 06:29:50;;;;;;;4.97;2.63;;;4.40;99.90;;;;;;4983200;28;20749;-67
2022/11/23 06:32:16;;;;;;;7.40;2.67;;;4.40;99.90;;;;;;4981843;28;20262;-68
2022/11/23 06:34:42;;;;;;;5.70;2.20;;;4.30;99.90;;;;;;4994777;28;20206;-68
2022/11/23 06:37:07;;;;;;;4.50;1.60;;;4.30;99.90;;;;;;4994044;28;20528;-68
2022/11/23 06:39:33;;;;;;;4.07;2.10;;;4.30;99.90;;;;;;4988783;28;20172;-68
2022/11/23 06:41:58;;;;;;;8.53;2.80;;;4.30;99.90;;;;;;4990840;28;20234;-68
2022/11/23 06:44:24;;;;;;;5.60;3.13;;;4.30;99.90;;;;;;4992524;28;20203;-68
2022/11/23 06:46:49;;;;;;;3.83;1.80;;;4.20;99.90;;;;;;4989376;28;20294;-68
2022/11/23 06:49:18;;;;;;;2.27;1.73;;;4.20;99.90;;;;;;4987346;28;20207;-68
2022/11/23 06:51:44;;;;;;;3.43;2.37;;;4.20;99.90;;;;;;4990229;28;20688;-69
2022/11/23 06:54:10;;;;;;;4.40;2.53;;;4.20;99.90;;;;;;4993042;28;20434;-68
2022/11/23 06:56:35;;;;;;;6.70;1.80;;;4.20;99.90;;;;;;4993962;28;20491;-69
2022/11/23 06:59:01;;;;;;;2.43;2.20;;;4.20;99.90;;;;;;4992320;28;20180;-68
2022/11/23 07:01:26;;;;;;;3.17;2.30;;;4.20;99.90;;;;;;4984818;28;20206;-67
2022/11/23 07:03:52;;;;;;;3.97;2.40;;;4.20;99.90;;;;;;4989509;28;20220;-69
2022/11/23 07:06:17;;;;;;;5.03;2.60;;;4.20;99.90;;;;;;4991596;28;20211;-68
2022/11/23 07:08:43;;;;;;;5.80;2.87;;;4.20;99.90;;;;;;4990114;28;20193;-68
2022/11/23 07:11:10;;;;;;;2.87;2.07;;;4.20;99.90;;;;;;4993837;28;20203;-68
2022/11/23 07:13:36;;;;;;;2.90;1.90;;;4.30;99.90;;;;;;4984703;28;21001;-68
2022/11/23 07:16:03;;;;;;;3.93;2.70;;;4.30;99.90;;;;;;4993989;28;20455;-68
2022/11/23 07:18:29;;;;;;;4.73;2.50;;;4.40;99.90;;;;;;4984468;28;20542;-68
2022/11/23 07:20:58;;;;;;;2.70;1.80;;;4.40;99.90;;;;;;4983352;28;20512;-68
2022/11/23 07:23:23;;;;;;;2.97;2.10;;;4.50;99.90;;;;;;4993110;28;20211;-68
2022/11/23 07:25:49;;;;;;;4.57;2.70;;;4.50;99.90;;;;;;4990389;28;20466;-68
2022/11/23 07:28:15;;;;;;;5.23;2.80;;;4.90;99.90;;;;;;4986615;28;20198;-68
2022/11/23 07:30:41;;;;;;;6.33;3.10;;;5.60;99.90;;;;;;4992293;28;20183;-68
2022/11/23 07:33:09;;;;;;;8.17;2.40;;;6.40;99.90;;;;;;4994176;28;20472;-68
2022/11/23 07:35:36;;;;;;;11.23;2.50;;;7.20;99.90;;;;;;4984807;28;20653;-69
2022/11/23 07:38:02;;;;;;;7.43;2.90;;;7.90;99.90;;;;;;4994206;28;20442;-67
2022/11/23 07:40:28;;;;;;;5.60;2.30;;;8.80;99.90;;;;;;4993119;28;20476;-68
2022/11/23 07:43:01;;;;;;;4.47;2.20;;;9.50;99.90;;;;;;4990694;28;20857;-68
2022/11/23 07:45:28;;;;;;;8.70;2.90;;;10.40;99.90;;;;;;4986944;28;20184;-68
2022/11/23 07:48:01;;;;;;;9.57;2.93;;;11.00;99.90;;;;;;4985773;28;20459;-67
2022/11/23 07:50:27;;;;;;;6.43;4.03;;;11.60;99.90;;;;;;4993564;28;20784;-68
2022/11/23 07:52:52;;;;;;;6.17;2.50;;;12.10;99.90;;;;;;4991722;28;20524;-68
2022/11/23 07:55:18;;;;;;;8.40;2.43;;;12.30;99.90;;;;;;4990459;28;20198;-68
2022/11/23 07:57:43;;;;;;;7.87;2.80;;;12.40;99.90;;;;;;4991897;28;20219;-68
2022/11/23 08:00:09;;;;;;;4.40;2.63;;;13.00;99.90;;;;;;4987534;28;20203;-69
2022/11/23 08:02:35;;;;;;;8.10;3.67;;;12.80;99.90;;;;;;4986884;28;20298;-65
2022/11/23 08:05:01;;;;;;;6.33;3.13;;;12.50;99.90;;;;;;4988510;28;20995;-68
2022/11/23 08:07:26;;;;;;;5.03;3.13;;;12.10;99.90;;;;;;4992751;28;20263;-69
2022/11/23 08:09:52;;;;;;;5.53;3.27;;;11.80;99.90;;;;;;4984489;28;20200;-67
2022/11/23 08:12:17;;;;;;;5.63;2.90;;;12.00;99.90;;;;;;4984586;28;20220;-68
2022/11/23 08:14:43;;;;;;;3.70;2.80;;;12.30;99.90;;;;;;4992785;28;20654;-68
2022/11/23 08:17:09;;;;;;;3.97;3.00;;;12.40;99.90;;;;;;4993428;28;20636;-69
2022/11/23 08:19:35;;;;;;;4.83;2.67;;;12.20;99.90;;;;;;4981835;28;20183;-68
2022/11/23 08:22:00;;;;;;;6.37;2.57;;;12.20;99.90;;;;;;4993001;28;20998;-68
2022/11/23 08:24:26;;;;;;;5.57;2.77;;;11.40;99.90;;;;;;4991964;28;20176;-68
2022/11/23 08:26:51;;;;;;;2.97;2.33;;;11.50;99.90;;;;;;4992111;28;20188;-68
2022/11/23 08:29:17;;;;;;;7.10;2.67;;;12.00;99.90;;;;;;4985418;28;20187;-68
2022/11/23 08:31:42;;;;;;;5.50;4.10;;;12.40;99.90;;;;;;4987677;28;20215;-68
2022/11/23 08:34:08;;;;;;;2.70;2.10;;;13.10;99.90;;;;;;4985903;28;20184;-68
2022/11/23 08:36:33;;;;;;;5.03;2.63;;;13.50;99.90;;;;;;4988690;28;20182;-69
2022/11/23 08:38:59;;;;;;;2.07;1.60;;;13.50;99.90;;;;;;4978480;28;20183;-68
2022/11/23 08:41:24;;;;;;;2.23;1.80;;;13.80;99.90;;;;;;4990989;28;20290;-68
2022/11/23 08:43:50;;;;;;;5.90;2.23;;;13.40;99.90;;;;;;4979244;28;20184;-66
2022/11/23 08:46:16;;;;;;;5.13;2.20;;;13.60;99.90;;;;;;4988337;28;20190;-68
2022/11/23 08:48:42;;;;;;;5.00;2.10;;;14.00;99.90;;;;;;4988129;28;20193;-66
2022/11/23 08:51:08;;;;;;;5.10;2.83;;;14.40;99.90;;;;;;4983366;28;20545;-68
2022/11/23 08:53:34;;;;;;;5.73;3.07;;;14.80;99.90;;;;;;4988179;28;20190;-68
2022/11/23 08:56:01;;;;;;;4.53;2.70;;;15.10;99.90;;;;;;4988158;28;20439;-67
2022/11/23 08:58:26;;;;;;;4.13;2.50;;;14.40;99.90;;;;;;4987963;28;20201;-68
2022/11/23 09:00:52;;;;;;;6.13;2.00;;;13.30;99.90;;;;;;4986931;28;20497;-68
2022/11/23 09:03:17;;;;;;;5.53;2.40;;;13.10;99.90;;;;;;4991063;28;20190;-67
2022/11/23 09:05:43;;;;;;;4.00;2.03;;;14.30;99.90;;;;;;4987198;28;20203;-70
2022/11/23 09:08:09;;;;;;;3.67;3.00;;;15.90;99.80;;;;;;4989266;28;20249;-69
2022/11/23 09:10:35;;;;;;;6.17;2.00;;;15.80;97.20;;;;;;4987121;28;20195;-68
2022/11/23 09:13:00;;;;;;;3.70;2.00;;;15.10;96.80;;;;;;4991499;28;20899;-68
2022/11/23 09:15:26;;;;;;;1.37;1.27;;;14.70;98.70;;;;;;4988800;28;20435;-68
2022/11/23 09:17:51;;;;;;;7.70;2.30;;;14.70;99.10;;;;;;4980124;28;20202;-69
2022/11/23 09:20:17;;;;;;;5.50;2.00;;;14.00;99.90;;;;;;4986227;28;20180;-68
2022/11/23 09:22:48;;;;;;;6.53;2.60;;;14.20;99.90;;;;;;4988942;28;20243;-68
2022/11/23 09:25:14;;;;;;;3.60;2.77;;;14.30;99.90;;;;;;4983183;28;20439;-68
2022/11/23 09:27:39;;;;;;;3.90;3.10;;;14.40;98.40;;;;;;4984888;28;20807;-68
2022/11/23 09:30:06;;;;;;;4.37;4.07;;;14.50;99.20;;;;;;4988387;28;20183;-68
2022/11/23 09:32:31;;;;;;;2.37;1.97;;;15.50;97.60;;;;;;4985117;28;20211;-69
2022/11/23 09:34:57;;;;;;;3.83;1.70;;;16.90;94.70;;;;;;4992069;28;20435;-68
2022/11/23 09:37:22;;;;;;;3.20;2.10;;;18.00;89.50;;;;;;4986371;28;20262;-67
2022/11/23 09:39:48;;;;;;;2.87;2.30;;;16.70;90.20;;;;;;4981938;28;20206;-67
2022/11/23 09:42:33;;;;;;;2.93;2.10;;;16.40;91.60;;;;;;4984114;28;20301;-69
2022/11/23 09:45:28;;;;;;;5.23;2.50;;;18.10;89.20;;;;;;4990507;28;20206;-68
2022/11/23 09:48:12;;;;;;;4.33;3.00;;;18.80;85.80;;;;;;4981677;28;20821;-68
2022/11/23 09:50:44;;;;;;;3.03;2.17;;;19.10;83.00;;;;;;4989121;28;20442;-68
2022/11/23 09:53:16;;;;;;;4.40;2.97;;;19.30;78.80;;;;;;4986658;28;20461;-69
2022/11/23 09:55:45;;;;;;;6.20;4.10;;;18.50;79.70;;;;;;4984804;28;20490;-68
2022/11/23 09:58:16;;;;;;;5.43;3.50;;;18.00;80.00;;;;;;4987000;28;20450;-68
2022/11/23 10:01:03;;;;;;;3.90;2.50;;;18.20;80.20;;;;;;4985789;28;20447;-67
2022/11/23 10:03:34;;;;;;;7.57;2.17;;;18.70;80.20;;;;;;4986459;28;20431;-68
2022/11/23 10:06:22;;;;;;;7.60;2.80;;;20.10;74.00;;;;;;4981528;28;20807;-67
2022/11/23 10:09:20;;;;;;;4.83;2.27;;;19.90;70.10;;;;;;4987268;28;20552;-68
2022/11/23 10:12:15;;;;;;;5.90;3.80;;;19.40;71.60;;;;;;4984618;28;20474;-67
2022/11/23 10:14:50;;;;;;;5.93;4.50;;;20.00;71.40;;;;;;4986547;28;20509;-68
2022/11/23 10:17:44;;;;;;;4.70;2.30;;;20.90;68.80;;;;;;4977489;28;20437;-68
2022/11/23 10:20:31;;;;;;;8.20;2.33;;;19.70;67.50;;;;;;4981974;28;20863;-68
2022/11/23 10:23:02;;;;;;;5.23;2.80;;;19.50;69.70;;;;;;4988036;28;20501;-69
2022/11/23 10:25:36;;;;;;;4.40;2.30;;;20.80;67.30;;;;;;4983965;28;20447;-67
2022/11/23 10:28:12;;;;;;;2.83;2.53;;;21.30;63.50;;;;;;4981978;28;20919;-69
2022/11/23 10:30:38;;;;;;;5.33;2.50;;;20.90;62.50;;;;;;4986375;28;20492;-68
2022/11/23 10:33:27;;;;;;;2.30;2.10;;;21.00;61.00;;;;;;4989585;28;20475;-67
2022/11/23 10:35:53;;;;;;;3.23;2.00;;;21.40;60.60;;;;;;4990808;28;20442;-69
2022/11/23 10:38:20;;;;;;;4.30;2.53;;;22.10;57.40;;;;;;4987153;28;20811;-68
2022/11/23 10:41:08;;;;;;;4.80;2.33;;;22.30;57.20;;;;;;4987734;28;20222;-68
2022/11/23 10:43:40;;;;;;;4.87;2.57;;;21.10;56.90;;;;;;4988163;28;20497;-67
2022/11/23 10:46:42;;;;;;;3.30;2.47;;;20.30;58.80;;;;;;4989772;28;20493;-68
2022/11/23 10:49:29;;;;;;;5.50;2.67;;;21.80;58.00;;;;;;4942984;29;20439;-69
2022/11/23 10:51:59;;;;;;;4.07;2.83;;;23.00;54.80;;;;;;4980276;28;20478;-67
2022/11/23 10:54:27;;;;;;;6.47;4.73;;;22.80;53.90;;;;;;4992633;28;20434;-67
2022/11/23 10:56:54;;;;;;;3.50;3.20;;;22.80;54.90;;;;;;4989579;28;20439;-68
2022/11/23 10:59:35;;;;;;;2.97;1.90;;;23.00;52.80;;;;;;4992358;28;20441;-68
2022/11/23 11:02:21;;;;;;;4.90;2.70;;;23.20;52.30;;;;;;4994233;28;20458;-68
2022/11/23 11:04:49;;;;;;;2.57;2.37;;;23.80;51.10;;;;;;4982803;28;20435;-68
2022/11/23 11:07:28;;;;;;;3.70;2.90;;;24.90;49.00;;;;;;4993706;28;20445;-68
2022/11/23 11:09:59;;;;;;;3.50;1.90;;;24.20;47.80;;;;;;4989096;28;20478;-68
2022/11/23 11:12:26;;;;;;;2.43;1.90;;;21.60;49.80;;;;;;4987643;28;20976;-68
2022/11/23 11:15:03;;;;;;;2.60;1.70;;;21.20;51.70;;;;;;4991967;28;20439;-68
2022/11/23 11:17:32;;;;;;;1.60;1.50;;;23.20;49.40;;;;;;4993817;28;20434;-67
2022/11/23 11:19:58;;;;;;;4.57;2.60;;;24.30;47.00;;;;;;4992760;28;21067;-66
2022/11/23 11:22:27;;;;;;;2.00;1.80;;;23.60;47.40;;;;;;4992471;28;20498;-67
2022/11/23 11:24:54;;;;;;;2.47;1.67;;;24.40;47.20;;;;;;4992425;28;20960;-67
2022/11/23 11:27:21;;;;;;;3.03;2.37;;;24.60;46.50;;;;;;4993159;28;20439;-67
2022/11/23 11:29:50;;;;;;;3.53;1.67;;;24.70;45.90;;;;;;4992867;28;20445;-67
2022/11/23 11:32:33;;;;;;;3.10;1.83;;;24.80;45.50;;;;;;4992106;28;20853;-67
2022/11/23 11:35:50;;;;;;;2.53;2.33;;;25.50;45.30;;;;;;4991018;28;20970;-66
2022/11/23 11:38:18;;;;;;;4.13;2.10;;;24.30;44.30;;;;;;4944185;29;20539;-67
2022/11/23 11:40:48;;;;;;;3.40;1.60;;;22.40;46.50;;;;;;4980109;28;20830;-66
2022/11/23 11:43:19;;;;;;;3.13;1.53;;;21.90;47.80;;;;;;4986093;28;20478;-66
2022/11/23 11:45:47;;;;;;;3.50;1.53;;;22.10;47.70;;;;;;4991104;28;21017;-66
2022/11/23 11:48:21;;;;;;;3.17;1.93;;;23.40;46.00;;;;;;4989763;28;20449;-67
2022/11/23 11:50:50;;;;;;;4.30;2.30;;;21.70;46.10;;;;;;4990180;28;20442;-67
2022/11/23 11:53:44;;;;;;;2.63;1.87;;;21.10;47.80;;;;;;4989894;28;20469;-67
2022/11/23 11:56:26;;;;;;;3.40;1.60;;;21.70;46.50;;;;;;4980415;28;20435;-68
2022/11/23 11:58:58;;;;;;;1.73;1.47;;;20.90;46.00;;;;;;4992427;28;20788;-66
2022/11/23 12:01:38;;;;;;;2.30;1.57;;;19.90;47.30;;;;;;4991283;28;20469;-67
2022/11/23 12:04:39;;;;;;;3.23;2.47;;;19.50;48.30;;;;;;4985986;28;20434;-67
2022/11/23 12:07:19;;;;;;;4.37;2.33;;;18.80;49.10;;;;;;4963096;28;20442;-66
2022/11/23 12:09:50;;;;;;;2.90;2.03;;;18.30;50.80;;;;;;4985277;28;20438;-66
2022/11/23 12:12:18;;;;;;;2.93;2.40;;;18.80;51.00;;;;;;4989180;28;20530;-66
2022/11/23 12:14:48;;;;;;;2.83;1.80;;;18.40;51.40;;;;;;4980001;28;20818;-67
2022/11/23 12:17:29;;;;;;;2.20;1.77;;;18.90;51.40;;;;;;4980874;28;20438;-67
2022/11/23 12:20:12;;;;;;;4.63;2.30;;;19.80;50.40;;;;;;4983572;28;20561;-68
2022/11/23 12:22:51;;;;;;;3.93;2.27;;;20.30;49.60;;;;;;4992924;28;20473;-67
2022/11/23 12:25:37;;;;;;;4.70;4.30;;;20.30;49.60;;;;;;4986913;28;20541;-67
2022/11/23 12:28:21;;;;;;;3.10;2.10;;;20.90;49.60;;;;;;4992169;28;21002;-67
2022/11/23 12:30:49;;;;;;;2.57;1.70;;;22.20;46.70;;;;;;4991711;28;20480;-67
2022/11/23 12:33:54;;;;;;;1.77;1.47;;;22.40;47.00;;;;;;4988946;28;20466;-67
2022/11/23 12:36:41;;;;;;;3.70;1.63;;;22.20;45.50;;;;;;4987025;28;20439;-66
2022/11/23 12:39:42;;;;;;;4.27;2.50;;;20.40;48.30;;;;;;4989309;28;20430;-66
2022/11/23 12:42:39;;;;;;;1.60;1.50;;;20.90;49.10;;;;;;4989057;28;20450;-67
2022/11/23 12:45:35;;;;;;;4.53;2.90;;;22.00;46.90;;;;;;4987083;28;20532;-68
2022/11/23 12:48:21;;;;;;;1.70;1.60;;;20.50;48.00;;;;;;4986904;28;20440;-67
2022/11/23 12:50:56;;;;;;;2.10;1.53;;;19.40;49.70;;;;;;4991536;28;20431;-67
2022/11/23 12:54:07;;;;;;;1.57;1.47;;;19.10;49.80;;;;;;4982171;28;20835;-67
2022/11/23 12:57:08;;;;;;;2.63;1.90;;;20.50;49.60;;;;;;4930518;29;20539;-68
2022/11/23 12:59:43;;;;;;;2.60;1.57;;;20.90;48.40;;;;;;4985424;28;20433;-67
2022/11/23 13:02:35;;;;;;;3.80;1.70;;;20.20;48.10;;;;;;4990855;28;20474;-67
2022/11/23 13:05:38;;;;;;;2.57;1.57;;;20.50;48.30;;;;;;4985406;28;20451;-67